createdAt,value
2023-04-20T00:00:50.440Z,10.09
2023-04-20T00:03:22.138Z,10.09
2023-04-20T00:05:50.216Z,10.09
2023-04-20T00:08:18.848Z,10.10
2023-04-20T00:10:47.012Z,10.11
2023-04-20T00:13:14.992Z,10.11
2023-04-20T00:15:42.933Z,10.10
2023-04-20T00:18:11.521Z,10.11
2023-04-20T00:20:39.453Z,10.11
2023-04-20T00:23:07.810Z,10.11
2023-04-20T00:25:36.398Z,10.13
2023-04-20T00:28:05.214Z,10.15
2023-04-20T00:30:34.959Z,10.12
2023-04-20T00:33:03.124Z,10.13
2023-04-20T00:35:31.212Z,10.14
2023-04-20T00:37:59.263Z,10.14
2023-04-20T00:40:27.188Z,10.14
2023-04-20T00:42:55.073Z,10.14
2023-04-20T00:45:24.598Z,10.15
2023-04-20T00:47:52.531Z,10.15
2023-04-20T00:50:21.877Z,10.15
2023-04-20T00:52:49.831Z,10.13
2023-04-20T00:55:19.237Z,10.14
2023-04-20T00:57:47.102Z,10.14
2023-04-20T01:00:15.188Z,10.14
2023-04-20T01:02:43.943Z,10.13
2023-04-20T01:05:12.375Z,10.13
2023-04-20T01:07:41.029Z,10.12
2023-04-20T01:10:09.310Z,10.13
2023-04-20T01:12:40.541Z,10.14
2023-04-20T01:15:09.063Z,10.14
2023-04-20T01:17:39.748Z,10.14
2023-04-20T01:20:09.378Z,10.13
2023-04-20T01:22:50.283Z,10.11
2023-04-20T01:25:18.372Z,10.09
2023-04-20T01:27:47.815Z,10.08
2023-04-20T01:30:15.813Z,10.09
2023-04-20T01:32:43.845Z,10.07
2023-04-20T01:35:12.244Z,10.07
2023-04-20T01:37:40.608Z,10.08
2023-04-20T01:40:09.947Z,10.07
2023-04-20T01:42:38.309Z,10.05
2023-04-20T01:45:07.216Z,10.06
2023-04-20T01:47:36.724Z,10.04
2023-04-20T01:50:05.102Z,10.02
2023-04-20T01:52:33.063Z,10.02
2023-04-20T01:55:01.052Z,10.00
2023-04-20T01:57:29.094Z,9.98
2023-04-20T01:59:57.046Z,9.98
2023-04-20T02:02:25.003Z,9.99
2023-04-20T02:04:53.979Z,10.00
2023-04-20T02:07:21.997Z,10.00
2023-04-20T02:09:49.945Z,10.01
2023-04-20T02:12:17.889Z,10.01
2023-04-20T02:14:45.711Z,9.98
2023-04-20T02:17:15.645Z,9.98
2023-04-20T02:19:43.867Z,9.98
2023-04-20T02:22:11.675Z,9.99
2023-04-20T02:24:39.497Z,9.97
2023-04-20T02:27:07.514Z,9.98
2023-04-20T02:29:35.614Z,9.99
2023-04-20T02:32:03.819Z,9.99
2023-04-20T02:34:31.584Z,9.99
2023-04-20T02:36:59.553Z,9.97
2023-04-20T02:39:27.414Z,9.98
2023-04-20T02:41:56.110Z,9.98
2023-04-20T02:44:24.680Z,9.98
2023-04-20T02:46:52.746Z,9.99
2023-04-20T02:49:21.171Z,10.00
2023-04-20T02:51:49.238Z,10.01
2023-04-20T02:54:17.084Z,10.02
2023-04-20T02:56:45.350Z,10.03
2023-04-20T02:59:13.326Z,10.02
2023-04-20T03:01:59.617Z,10.02
2023-04-20T03:04:27.965Z,10.02
2023-04-20T03:07:01.420Z,10.01
2023-04-20T03:09:31.265Z,10.01
2023-04-20T03:11:59.072Z,9.99
2023-04-20T03:14:56.081Z,10.00
2023-04-20T03:17:30.770Z,10.00
2023-04-20T03:19:58.711Z,10.01
2023-04-20T03:22:26.806Z,10.03
2023-04-20T03:24:57.291Z,10.04
2023-04-20T03:27:40.416Z,10.05
2023-04-20T03:30:12.420Z,10.06
2023-04-20T03:32:42.043Z,10.07
2023-04-20T03:35:10.397Z,10.08
2023-04-20T03:37:38.402Z,10.07
2023-04-20T03:40:08.700Z,10.06
2023-04-20T03:42:37.679Z,10.07
2023-04-20T03:45:06.790Z,10.08
2023-04-20T03:47:35.165Z,10.10
2023-04-20T03:50:03.263Z,10.11
2023-04-20T03:52:31.459Z,10.10
2023-04-20T03:55:01.898Z,10.12
2023-04-20T03:57:29.896Z,10.14
2023-04-20T03:59:57.784Z,10.16
2023-04-20T04:02:27.248Z,10.18
2023-04-20T04:04:55.688Z,10.19
2023-04-20T04:07:24.174Z,10.19
2023-04-20T04:09:52.143Z,10.18
2023-04-20T04:12:20.023Z,10.16
2023-04-20T04:14:48.509Z,10.16
2023-04-20T04:17:17.378Z,10.16
2023-04-20T04:21:13.536Z,10.15
2023-04-20T04:23:43.816Z,10.14
2023-04-20T04:26:24.818Z,10.14
2023-04-20T04:28:53.539Z,10.16
2023-04-20T04:31:23.691Z,10.16
2023-04-20T04:33:52.312Z,10.13
2023-04-20T04:36:27.999Z,10.10
2023-04-20T04:38:57.520Z,10.04
2023-04-20T04:41:25.985Z,10.00
2023-04-20T04:43:54.838Z,9.97
2023-04-20T04:46:27.799Z,9.93
2023-04-20T04:49:01.256Z,9.87
2023-04-20T04:51:29.458Z,9.86
2023-04-20T04:53:57.402Z,9.83
2023-04-20T04:56:25.741Z,9.82
2023-04-20T04:58:53.586Z,9.80
2023-04-20T05:01:21.471Z,9.82
2023-04-20T05:03:49.707Z,9.81
2023-04-20T05:06:17.689Z,9.81
2023-04-20T05:08:46.453Z,9.76
2023-04-20T05:11:14.428Z,9.76
2023-04-20T05:13:42.615Z,9.75
2023-04-20T05:16:11.381Z,9.76
2023-04-20T05:18:39.558Z,9.77
2023-04-20T05:21:07.424Z,9.77
2023-04-20T05:23:36.302Z,9.80
2023-04-20T05:26:04.550Z,9.84
2023-04-20T05:28:35.825Z,9.88
2023-04-20T05:31:03.620Z,9.83
2023-04-20T05:33:31.653Z,9.83
2023-04-20T05:35:59.662Z,9.85
2023-04-20T05:38:28.009Z,9.86
2023-04-20T05:40:56.132Z,9.84
2023-04-20T05:43:24.048Z,9.82
2023-04-20T05:45:52.125Z,9.80
2023-04-20T05:48:20.551Z,9.74
2023-04-20T05:50:48.398Z,9.64
2023-04-20T05:53:16.225Z,9.55
2023-04-20T05:55:44.198Z,9.47
2023-04-20T05:58:12.331Z,9.41
2023-04-20T06:00:40.803Z,9.32
2023-04-20T06:03:09.030Z,9.19
2023-04-20T06:05:37.482Z,9.11
2023-04-20T06:08:05.969Z,9.07
2023-04-20T06:10:34.823Z,9.06
2023-04-20T06:13:02.755Z,9.05
2023-04-20T06:15:30.946Z,9.04
2023-04-20T06:17:59.017Z,9.06
2023-04-20T06:20:26.972Z,9.03
2023-04-20T06:22:55.596Z,9.02
2023-04-20T06:25:23.494Z,9.06
2023-04-20T06:27:52.801Z,9.12
2023-04-20T06:30:20.991Z,9.19
2023-04-20T06:32:49.196Z,9.24
2023-04-20T06:35:17.150Z,9.26
2023-04-20T06:37:45.623Z,9.22
2023-04-20T06:40:16.153Z,9.26
2023-04-20T06:42:45.781Z,9.32
2023-04-20T06:45:13.800Z,9.40
2023-04-20T06:47:41.824Z,9.61
2023-04-20T06:50:10.217Z,9.87
2023-04-20T06:52:39.007Z,10.07
2023-04-20T06:55:07.470Z,10.22
2023-04-20T06:57:35.552Z,10.35
2023-04-20T07:00:03.973Z,10.44
2023-04-20T07:02:50.793Z,10.53
2023-04-20T07:05:19.087Z,10.61
2023-04-20T07:07:47.200Z,10.67
2023-04-20T07:10:15.530Z,10.72
2023-04-20T07:12:44.119Z,10.66
2023-04-20T07:15:12.794Z,10.65
2023-04-20T07:17:40.870Z,10.57
2023-04-20T07:20:09.582Z,10.43
2023-04-20T07:22:38.444Z,10.38
2023-04-20T07:25:07.762Z,10.38
2023-04-20T07:27:37.561Z,10.32
2023-04-20T07:30:07.223Z,10.25
2023-04-20T07:32:36.098Z,10.19
2023-04-20T07:35:04.662Z,10.16
2023-04-20T07:37:33.335Z,10.10
2023-04-20T07:40:02.033Z,10.08
2023-04-20T07:42:31.579Z,10.08
2023-04-20T07:44:59.499Z,10.09
2023-04-20T07:47:27.720Z,10.12
2023-04-20T07:49:57.576Z,10.18
2023-04-20T07:52:25.992Z,10.18
2023-04-20T07:54:53.940Z,10.19
2023-04-20T07:57:21.819Z,10.21
2023-04-20T07:59:49.756Z,10.21
2023-04-20T08:02:17.943Z,10.22
2023-04-20T08:04:46.679Z,10.24
2023-04-20T08:07:15.139Z,10.24
2023-04-20T08:09:43.199Z,10.25
2023-04-20T08:12:12.267Z,10.24
2023-04-20T08:14:41.311Z,10.24
2023-04-20T08:17:09.375Z,10.21
2023-04-20T08:19:37.491Z,10.19
2023-04-20T08:22:05.768Z,10.20
2023-04-20T08:24:34.445Z,10.21
2023-04-20T08:27:02.353Z,10.18
2023-04-20T08:29:30.930Z,10.17
2023-04-20T08:31:58.903Z,10.11
2023-04-20T08:34:27.199Z,10.01
2023-04-20T08:36:55.651Z,9.91
2023-04-20T08:39:24.482Z,9.83
2023-04-20T08:41:55.561Z,9.78
2023-04-20T08:44:24.478Z,9.72
2023-04-20T08:46:52.352Z,9.66
2023-04-20T08:49:21.217Z,9.63
2023-04-20T08:51:49.413Z,9.58
2023-04-20T08:54:17.866Z,9.53
2023-04-20T08:56:47.145Z,9.44
2023-04-20T08:59:16.365Z,9.42
2023-04-20T09:01:44.689Z,9.39
2023-04-20T09:04:27.018Z,9.34
2023-04-20T09:06:55.897Z,9.29
2023-04-20T09:09:25.279Z,9.27
2023-04-20T09:12:07.656Z,9.25
2023-04-20T09:14:47.085Z,9.22
2023-04-20T09:17:16.033Z,9.17
2023-04-20T09:19:44.724Z,9.13
2023-04-20T09:22:12.745Z,9.11
2023-04-20T09:24:41.478Z,9.07
2023-04-20T09:27:22.648Z,9.05
2023-04-20T09:30:00.418Z,9.00
2023-04-20T09:32:29.595Z,8.98
2023-04-20T09:34:57.629Z,8.97
2023-04-20T09:37:25.791Z,8.98
2023-04-20T09:39:55.981Z,8.98
2023-04-20T09:42:23.792Z,8.97
2023-04-20T09:44:51.543Z,8.98
2023-04-20T09:47:19.683Z,9.00
2023-04-20T09:49:47.798Z,9.01
2023-04-20T09:52:17.342Z,9.04
2023-04-20T09:54:45.452Z,9.10
2023-04-20T09:57:14.045Z,9.11
2023-04-20T09:59:46.790Z,9.10
2023-04-20T10:02:15.022Z,9.09
2023-04-20T10:04:58.717Z,9.09
2023-04-20T10:07:31.853Z,9.10
2023-04-20T10:10:11.334Z,9.13
2023-04-20T10:12:54.615Z,9.18
2023-04-20T10:15:24.278Z,9.20
2023-04-20T10:17:53.491Z,9.26
2023-04-20T10:20:26.406Z,9.34
2023-04-20T10:23:06.743Z,9.45
2023-04-20T10:25:34.509Z,9.54
2023-04-20T10:28:05.492Z,9.64
2023-04-20T10:30:33.588Z,9.73
2023-04-20T10:33:03.373Z,9.77
2023-04-20T10:35:51.224Z,9.79
2023-04-20T10:38:30.480Z,9.84
2023-04-20T10:41:12.134Z,9.83
2023-04-20T10:43:43.351Z,9.81
2023-04-20T10:46:18.287Z,9.80
2023-04-20T10:48:50.380Z,9.80
2023-04-20T10:51:18.694Z,9.82
2023-04-20T10:53:46.510Z,9.86
2023-04-20T10:56:14.421Z,9.90
2023-04-20T10:58:43.026Z,9.94
2023-04-20T11:01:11.177Z,10.00
2023-04-20T11:03:39.149Z,10.00
2023-04-20T11:06:07.732Z,10.01
2023-04-20T11:08:43.328Z,10.02
2023-04-20T11:11:21.316Z,10.05
2023-04-20T11:13:49.198Z,10.12
2023-04-20T11:16:18.292Z,10.16
2023-04-20T11:18:52.099Z,10.20
2023-04-20T11:21:21.880Z,10.19
2023-04-20T11:23:50.293Z,10.18
2023-04-20T11:26:18.869Z,10.14
2023-04-20T11:28:56.477Z,10.09
2023-04-20T11:31:26.365Z,9.99
2023-04-20T11:33:54.377Z,9.92
2023-04-20T11:36:23.589Z,9.84
2023-04-20T11:38:51.490Z,9.76
2023-04-20T11:41:19.473Z,9.69
2023-04-20T11:43:47.403Z,9.63
2023-04-20T11:46:17.156Z,9.62
2023-04-20T11:48:45.927Z,9.59
2023-04-20T11:51:14.323Z,9.57
2023-04-20T11:53:42.746Z,9.58
2023-04-20T11:56:10.815Z,9.60
2023-04-20T11:58:38.674Z,9.63
2023-04-20T12:01:06.864Z,9.67
2023-04-20T12:03:35.119Z,9.69
2023-04-20T12:06:04.872Z,9.74
2023-04-20T12:08:33.129Z,9.77
2023-04-20T12:11:00.985Z,9.81
2023-04-20T12:13:29.060Z,9.84
2023-04-20T12:15:56.960Z,9.87
2023-04-20T12:18:25.198Z,9.89
2023-04-20T12:20:53.268Z,9.93
2023-04-20T12:23:21.197Z,9.95
2023-04-20T12:25:49.622Z,9.98
2023-04-20T12:28:17.834Z,10.01
2023-04-20T12:30:46.205Z,10.05
2023-04-20T12:33:14.373Z,10.09
2023-04-20T12:35:42.438Z,10.15
2023-04-20T12:38:11.769Z,10.22
2023-04-20T12:40:41.134Z,10.28
2023-04-20T12:43:09.220Z,10.34
2023-04-20T12:45:37.119Z,10.38
2023-04-20T12:48:05.204Z,10.41
2023-04-20T12:50:33.657Z,10.41
2023-04-20T12:53:02.573Z,10.45
2023-04-20T12:55:30.774Z,10.48
2023-04-20T12:57:58.846Z,10.49
2023-04-20T13:00:26.795Z,10.51
2023-04-20T13:02:54.892Z,10.56
2023-04-20T13:05:22.976Z,10.59
2023-04-20T13:07:51.645Z,10.63
2023-04-20T13:10:19.490Z,10.66
2023-04-20T13:12:48.235Z,10.70
2023-04-20T13:15:31.807Z,10.72
2023-04-20T13:18:06.651Z,10.76
2023-04-20T13:20:34.860Z,10.78
2023-04-20T13:23:03.630Z,10.77
2023-04-20T13:25:34.653Z,10.75
2023-04-20T13:28:03.105Z,10.71
2023-04-20T13:30:30.993Z,10.69
2023-04-20T13:32:58.951Z,10.66
2023-04-20T13:35:26.826Z,10.63
2023-04-20T13:37:54.818Z,10.55
2023-04-20T13:40:22.834Z,10.49
2023-04-20T13:42:50.838Z,10.43
2023-04-20T13:45:18.795Z,10.36
2023-04-20T13:47:46.947Z,10.33
2023-04-20T13:50:14.834Z,10.34
2023-04-20T13:52:42.698Z,10.36
2023-04-20T13:55:11.256Z,10.38
2023-04-20T13:57:39.553Z,10.41
2023-04-20T14:00:08.342Z,10.42
2023-04-20T14:02:36.887Z,10.45
2023-04-20T14:05:06.417Z,10.46
2023-04-20T14:07:34.470Z,10.45
2023-04-20T14:10:02.816Z,10.45
2023-04-20T14:12:33.690Z,10.46
2023-04-20T14:15:02.505Z,10.47
2023-04-20T14:17:30.736Z,10.49
2023-04-20T14:19:59.496Z,10.52
2023-04-20T14:22:32.188Z,10.53
2023-04-20T14:25:00.496Z,10.57
2023-04-20T14:27:28.387Z,10.59
2023-04-20T14:29:56.430Z,10.63
2023-04-20T14:32:24.385Z,10.63
2023-04-20T14:34:52.316Z,10.62
2023-04-20T14:37:20.303Z,10.60
2023-04-20T14:39:48.655Z,10.57
2023-04-20T14:42:16.513Z,10.54
2023-04-20T14:44:44.487Z,10.50
2023-04-20T14:47:12.347Z,10.46
2023-04-20T14:49:40.236Z,10.44
2023-04-20T14:52:08.097Z,10.44
2023-04-20T14:54:36.677Z,10.46
2023-04-20T14:57:04.605Z,10.48
2023-04-20T14:59:33.909Z,10.50
2023-04-20T15:02:03.513Z,10.53
2023-04-20T15:04:32.557Z,10.56
2023-04-20T15:07:00.761Z,10.61
2023-04-20T15:09:28.937Z,10.67
2023-04-20T15:11:57.170Z,10.73
2023-04-20T15:14:25.194Z,10.78
2023-04-20T15:16:53.256Z,10.85
2023-04-20T15:19:22.717Z,10.92
2023-04-20T15:21:50.625Z,10.98
2023-04-20T15:24:18.754Z,11.04
2023-04-20T15:26:46.999Z,11.09
2023-04-20T15:29:14.990Z,11.13
2023-04-20T15:31:45.593Z,11.16
2023-04-20T15:34:15.596Z,11.20
2023-04-20T15:36:43.764Z,11.24
2023-04-20T15:39:12.517Z,11.28
2023-04-20T15:41:40.459Z,11.32
2023-04-20T15:44:08.302Z,11.37
2023-04-20T15:46:37.601Z,11.40
2023-04-20T15:49:05.561Z,11.43
2023-04-20T15:51:34.429Z,11.46
2023-04-20T15:54:02.264Z,11.49
2023-04-20T15:56:31.097Z,11.52
2023-04-20T15:58:58.981Z,11.53
2023-04-20T16:01:26.957Z,11.53
2023-04-20T16:03:55.163Z,11.55
2023-04-20T16:06:24.203Z,11.55
2023-04-20T16:08:54.014Z,11.57
2023-04-20T16:11:22.578Z,11.57
2023-04-20T16:13:50.591Z,11.57
2023-04-20T16:16:18.946Z,11.56
2023-04-20T16:18:48.185Z,11.57
2023-04-20T16:21:16.175Z,11.57
2023-04-20T16:23:44.153Z,11.57
2023-04-20T16:26:11.981Z,11.56
2023-04-20T16:28:39.841Z,11.55
2023-04-20T16:31:07.753Z,11.54
2023-04-20T16:33:36.607Z,11.52
2023-04-20T16:36:05.148Z,11.49
2023-04-20T16:39:13.352Z,11.49
2023-04-20T16:41:41.369Z,11.46
2023-04-20T16:44:09.450Z,11.44
2023-04-20T16:46:37.709Z,11.42
2023-04-20T16:49:05.589Z,11.39
2023-04-20T16:51:33.801Z,11.35
2023-04-20T16:54:01.894Z,11.31
2023-04-20T16:56:29.865Z,11.28
2023-04-20T16:58:58.260Z,11.25
2023-04-20T17:01:26.117Z,11.20
2023-04-20T17:03:54.218Z,11.16
2023-04-20T17:06:22.346Z,11.12
2023-04-20T17:08:50.447Z,11.07
2023-04-20T17:11:19.629Z,11.02
2023-04-20T17:13:47.701Z,10.97
2023-04-20T17:16:16.490Z,10.92
2023-04-20T17:18:44.980Z,10.88
2023-04-20T17:21:12.932Z,10.85
2023-04-20T17:23:41.284Z,10.80
2023-04-20T17:26:09.179Z,10.78
2023-04-20T17:28:37.017Z,10.74
2023-04-20T17:31:04.824Z,10.71
2023-04-20T17:33:32.768Z,10.67
2023-04-20T17:36:01.356Z,10.62
2023-04-20T17:38:29.249Z,10.57
2023-04-20T17:40:57.158Z,10.52
2023-04-20T17:43:25.102Z,10.47
2023-04-20T17:45:53.066Z,10.42
2023-04-20T17:48:20.959Z,10.37
2023-04-20T17:50:49.737Z,10.34
2023-04-20T17:53:17.686Z,10.31
2023-04-20T17:55:45.886Z,10.27
2023-04-20T17:58:13.808Z,10.23
2023-04-20T18:00:43.070Z,10.17
2023-04-20T18:03:11.232Z,10.13
2023-04-20T18:05:39.313Z,10.08
2023-04-20T18:08:07.417Z,10.03
2023-04-20T18:10:35.787Z,9.98
2023-04-20T18:13:03.561Z,9.93
2023-04-20T18:15:31.460Z,9.87
2023-04-20T18:17:59.546Z,9.82
2023-04-20T18:20:27.534Z,9.76
2023-04-20T18:22:55.518Z,9.69
2023-04-20T18:25:23.478Z,9.62
2023-04-20T18:27:51.373Z,9.53
2023-04-20T18:30:19.209Z,9.43
2023-04-20T18:32:47.177Z,9.35
2023-04-20T18:35:15.721Z,9.28
2023-04-20T18:37:43.570Z,9.21
2023-04-20T18:40:13.079Z,9.14
2023-04-20T18:42:42.639Z,9.08
2023-04-20T18:45:13.207Z,9.02
2023-04-20T18:47:41.264Z,8.95
2023-04-20T18:50:10.508Z,8.88
2023-04-20T18:52:38.490Z,8.82
2023-04-20T18:55:07.908Z,8.77
2023-04-20T18:57:35.822Z,8.73
2023-04-20T19:00:08.443Z,8.69
2023-04-20T19:02:37.116Z,8.64
2023-04-20T19:05:05.906Z,8.61
2023-04-20T19:07:33.764Z,8.57
2023-04-20T19:10:01.802Z,8.55
2023-04-20T19:12:30.078Z,8.53
2023-04-20T19:14:57.958Z,8.51
2023-04-20T19:17:26.178Z,8.47
2023-04-20T19:19:55.317Z,8.44
2023-04-20T19:22:23.382Z,8.42
2023-04-20T19:24:51.448Z,8.41
2023-04-20T19:27:19.536Z,8.39
2023-04-20T19:29:47.731Z,8.36
2023-04-20T19:32:15.691Z,8.33
2023-04-20T19:34:43.966Z,8.29
2023-04-20T19:37:12.145Z,8.26
2023-04-20T19:39:40.352Z,8.20
2023-04-20T19:42:08.179Z,8.16
2023-04-20T19:44:36.124Z,8.13
2023-04-20T19:47:04.329Z,8.10
2023-04-20T19:49:32.691Z,8.05
2023-04-20T19:52:00.791Z,8.01
2023-04-20T19:54:28.870Z,7.99
2023-04-20T19:56:57.785Z,7.97
2023-04-20T19:59:26.815Z,7.95
2023-04-20T20:01:54.779Z,7.95
2023-04-20T20:04:22.899Z,7.93
2023-04-20T20:06:51.399Z,7.94
2023-04-20T20:09:23.130Z,7.94
2023-04-20T20:11:51.947Z,7.97
2023-04-20T20:14:19.974Z,7.99
2023-04-20T20:16:49.261Z,8.00
2023-04-20T20:19:25.003Z,8.01
2023-04-20T20:21:53.758Z,8.03
2023-04-20T20:24:23.181Z,8.05
2023-04-20T20:26:51.218Z,8.07
2023-04-20T20:29:19.614Z,8.05
2023-04-20T20:31:47.857Z,8.03
2023-04-20T20:34:16.106Z,8.02
2023-04-20T20:36:45.950Z,8.02
2023-04-20T20:39:14.394Z,8.02
2023-04-20T20:41:42.449Z,8.04
2023-04-20T20:44:10.503Z,8.04
2023-04-20T20:46:38.809Z,8.05
2023-04-20T20:49:06.933Z,8.04
2023-04-20T20:51:35.164Z,8.04
2023-04-20T20:54:03.355Z,8.03
2023-04-20T20:56:31.541Z,8.01
2023-04-20T20:58:59.652Z,7.98
2023-04-20T21:01:27.539Z,7.97
2023-04-20T21:03:55.961Z,7.96
2023-04-20T21:06:23.940Z,7.94
2023-04-20T21:08:51.790Z,7.94
2023-04-20T21:11:19.760Z,7.96
2023-04-20T21:13:47.736Z,7.96
2023-04-20T21:16:15.671Z,7.96
2023-04-20T21:18:43.611Z,7.95
2023-04-20T21:21:12.816Z,7.97
2023-04-20T21:23:40.915Z,7.98
2023-04-20T21:26:09.164Z,7.99
2023-04-20T21:28:37.121Z,7.99
2023-04-20T21:31:05.168Z,8.00
2023-04-20T21:33:36.095Z,8.02
2023-04-20T21:36:04.337Z,8.04
2023-04-20T21:38:33.823Z,8.04
2023-04-20T21:41:01.751Z,8.05
2023-04-20T21:43:29.762Z,8.06
2023-04-20T21:45:57.691Z,8.06
2023-04-20T21:48:25.803Z,8.06
2023-04-20T21:50:53.725Z,8.04
2023-04-20T21:53:21.701Z,8.04
2023-04-20T21:55:49.670Z,8.02
2023-04-20T21:58:18.715Z,7.99
2023-04-20T22:00:46.829Z,7.96
2023-04-20T22:03:14.830Z,7.93
2023-04-20T22:05:43.173Z,7.87
2023-04-20T22:08:11.683Z,7.78
2023-04-20T22:10:40.128Z,7.71
2023-04-20T22:13:08.088Z,7.66
2023-04-20T22:15:36.330Z,7.62
2023-04-20T22:18:05.641Z,7.58
2023-04-20T22:20:33.787Z,7.52
2023-04-20T22:23:01.889Z,7.48
2023-04-20T22:25:29.946Z,7.43
2023-04-20T22:27:58.080Z,7.35
2023-04-20T22:30:26.037Z,7.25
2023-04-20T22:32:54.111Z,7.20
2023-04-20T22:35:22.461Z,7.16
2023-04-20T22:37:50.534Z,7.12
2023-04-20T22:40:18.727Z,7.08
2023-04-20T22:42:46.690Z,7.06
2023-04-20T22:45:14.913Z,7.03
2023-04-20T22:47:43.008Z,7.01
2023-04-20T22:50:12.485Z,6.97
2023-04-20T22:52:40.620Z,6.96
2023-04-20T22:55:09.398Z,6.95
2023-04-20T22:57:37.375Z,6.91
2023-04-20T23:00:07.979Z,6.89
2023-04-20T23:02:37.560Z,6.86
2023-04-20T23:05:06.591Z,6.84
2023-04-20T23:07:35.927Z,6.82
2023-04-20T23:10:04.757Z,6.81
2023-04-20T23:12:33.585Z,6.81
2023-04-20T23:15:01.514Z,6.80
2023-04-20T23:17:29.753Z,6.80
2023-04-20T23:19:58.410Z,6.81
2023-04-20T23:22:26.855Z,6.82
2023-04-20T23:24:57.347Z,6.83
2023-04-20T23:27:25.354Z,6.83
2023-04-20T23:29:53.219Z,6.84
2023-04-20T23:32:21.211Z,6.84
2023-04-20T23:34:49.084Z,6.83
2023-04-20T23:37:16.907Z,6.81
2023-04-20T23:39:44.736Z,6.81
2023-04-20T23:42:12.654Z,6.79
2023-04-20T23:44:40.508Z,6.77
2023-04-20T23:47:08.312Z,6.74
2023-04-20T23:49:36.444Z,6.73
2023-04-20T23:52:05.063Z,6.71
2023-04-20T23:54:33.500Z,6.71
2023-04-20T23:57:02.780Z,6.70
2023-04-20T23:59:31.648Z,6.68
